Hovedside
METAR-TAF:

METAR-TAF

Lufthavner :

Vientiane, Laos

breddegrad: 17-57N, lengdegrad: 102-34E, høyde over havet: 171 m

Gjeldene værobservasjon

Denne rapporten ble laget for 3 timer og 34 minutter siden, klokken 16:00 UTC
Vind 2 kt fra Nordvest
Temperatur 20°C
Luftfuktighet 83%
Trykk 1013 hPa
Sikt: 3000 m
dis

METAR: VLVT 191600Z 32002KT 3000 BR NSC 20/17 Q1013 NOSIG

Tid: 02:34 (19:34 UTC)

Varsel

Denne rapporten ble laget for 2 timer og 34 minutter siden, klokken 17:00 UTC
Varsel gyldig fra 19. klokken 18 UTC til 20. klokken 18 UTC
Vind 4 kt fra Vest-nordvest
Sikt: 8000 m
Få skyer i en høyde av 2000 ft
Få skyer i en høyde av 20000 ft
Midlertidig
fra 19. klokken 18 UTC til 19. klokken 22 UTC
Sikt: 4000 m
Få skyer i en høyde av 5000 ft
dis

TAF: VLVT 191700Z 1918/2018 30004KT 8000 FEW020 FEW200 TEMPO 1918/1922 4000 BR FEW050

Værobservasjoner og værvarsel for over 4000 flyplasser (METAR- og TAF-rapporter).

Tilgjengelige stasjoner er representert av de røde og gule prikkene på kartet.

Hold musepekeren over prikken for å se navnet på stasjonen.

Klikk så for å se værobservasjoner og -varsler.

For å forandre kartet kan du klikke på den grønne knappen med svart kryss for å zoome inn, på den grønne knappen med strek for å zoome ut, eller på de grønne pilene for å se tilstøtende kart.


METAR-TAF: